LGSK Airport Information

Runway Information
Runway 02 Length 5341 ft width 98 ft
Elevation 9 ft Threshold 190 ft Heading 19
Runway 20 Length 5341 ft Width 98 ft
Elevation 54 ft Threshold 0 ft Heading 199
Airport Frequencies
Type A/G Name SKIATHOS R Frequency 563.7 MHZ
Type APP Name SKIATHOS A Frequency 126.05 MHZ
Type TWR Name SKIATHOS T Frequency 126.05 MHZ
Airport Navaids
Type NDB Name Skiathos Frequency 326 KHZ
Airport Weather Information & NOTAM
ADDS - METARS form results

(1038 UTC 20 July 2019)
Data provider http://aviationweather.gov/metar/data/
 
METAR text: LGSK 200950Z 03009KT 9999 FEW020 27/19 Q1017
Conditions at: LGSK (SKIATHOS ISLAND , GR) observed 0950 UTC 20 July 2019
Temperature: 27.0°C (81°F)
Dewpoint: 19.0°C (66°F) [RH = 62%]
Pressure (altimeter): 30.03 inches Hg (1017.0 mb)
Winds: from the NNE (30 degrees) at 10 MPH (9 knots; 4.6 m/s)
Visibility: 6 or more miles (10+ km)
Ceiling: at least 12,000 feet AGL
Clouds: few clouds at 2000 feet AGL
Weather: no significant weather observed at this time

Forecast for: LGSK (SKIATHOS ISLAND , GR)
Text: TAF LGSK 200800Z 2009/2018 01014KT 9999 FEW020
Forecast period: 0900 to 1800 UTC 20 July 2019
Forecast type: FROM: standard forecast or significant change
Winds: from the N (10 degrees) at 16 MPH (14 knots; 7.2 m/s)
Visibility: 6 or more miles 10+ km)
Ceiling: at least 12,000 feet AGL
Clouds: few clouds at 2000 feet AGL
Weather: no significant weather forecast for this period